sensor_id;sensor_type;location;lat;lon;timestamp;temperature;humidity
24384;DHT22;12504;52.870;8.798;2023-04-24T00:01:50;10.60;99.90
24384;DHT22;12504;52.870;8.798;2023-04-24T00:04:16;10.60;99.90
24384;DHT22;12504;52.870;8.798;2023-04-24T00:06:42;10.60;99.90
24384;DHT22;12504;52.870;8.798;2023-04-24T00:09:08;10.60;99.90
24384;DHT22;12504;52.870;8.798;2023-04-24T00:11:35;10.60;99.90
24384;DHT22;12504;52.870;8.798;2023-04-24T00:14:01;10.60;99.90
24384;DHT22;12504;52.870;8.798;2023-04-24T00:16:26;10.60;99.90
24384;DHT22;12504;52.870;8.798;2023-04-24T00:18:52;10.70;99.90
24384;DHT22;12504;52.870;8.798;2023-04-24T00:21:21;10.80;99.90
24384;DHT22;12504;52.870;8.798;2023-04-24T00:23:50;10.80;99.90
24384;DHT22;12504;52.870;8.798;2023-04-24T00:26:16;10.80;99.90
24384;DHT22;12504;52.870;8.798;2023-04-24T00:28:42;10.90;99.90
24384;DHT22;12504;52.870;8.798;2023-04-24T00:31:07;10.90;99.90
24384;DHT22;12504;52.870;8.798;2023-04-24T00:33:33;11.00;99.90
24384;DHT22;12504;52.870;8.798;2023-04-24T00:35:59;11.00;99.90
24384;DHT22;12504;52.870;8.798;2023-04-24T00:38:25;11.00;99.90
24384;DHT22;12504;52.870;8.798;2023-04-24T00:40:50;11.00;99.90
24384;DHT22;12504;52.870;8.798;2023-04-24T00:43:16;10.90;99.90
24384;DHT22;12504;52.870;8.798;2023-04-24T00:45:42;10.90;99.90
24384;DHT22;12504;52.870;8.798;2023-04-24T00:48:08;10.80;99.90
24384;DHT22;12504;52.870;8.798;2023-04-24T00:50:35;10.80;99.90
24384;DHT22;12504;52.870;8.798;2023-04-24T00:53:01;10.70;99.90
24384;DHT22;12504;52.870;8.798;2023-04-24T00:55:26;10.70;99.90
24384;DHT22;12504;52.870;8.798;2023-04-24T00:57:52;10.60;99.90
24384;DHT22;12504;52.870;8.798;2023-04-24T01:00:18;10.60;99.90
24384;DHT22;12504;52.870;8.798;2023-04-24T01:02:44;10.60;99.90
24384;DHT22;12504;52.870;8.798;2023-04-24T01:05:11;10.60;99.90
24384;DHT22;12504;52.870;8.798;2023-04-24T01:07:37;10.60;99.90
24384;DHT22;12504;52.870;8.798;2023-04-24T01:10:03;10.60;99.90
24384;DHT22;12504;52.870;8.798;2023-04-24T01:12:29;10.60;99.90
24384;DHT22;12504;52.870;8.798;2023-04-24T01:14:54;10.70;99.90
24384;DHT22;12504;52.870;8.798;2023-04-24T01:17:22;10.70;99.90
24384;DHT22;12504;52.870;8.798;2023-04-24T01:19:47;10.70;99.90
24384;DHT22;12504;52.870;8.798;2023-04-24T01:22:13;10.70;99.90
24384;DHT22;12504;52.870;8.798;2023-04-24T01:24:40;10.80;99.90
24384;DHT22;12504;52.870;8.798;2023-04-24T01:27:08;10.80;99.90
24384;DHT22;12504;52.870;8.798;2023-04-24T01:29:34;10.70;99.90
24384;DHT22;12504;52.870;8.798;2023-04-24T01:31:59;10.70;99.90
24384;DHT22;12504;52.870;8.798;2023-04-24T01:34:25;10.80;99.90
24384;DHT22;12504;52.870;8.798;2023-04-24T01:36:51;10.80;99.90
24384;DHT22;12504;52.870;8.798;2023-04-24T01:39:17;10.80;99.90
24384;DHT22;12504;52.870;8.798;2023-04-24T01:41:42;10.80;99.90
24384;DHT22;12504;52.870;8.798;2023-04-24T01:44:08;10.70;99.90
24384;DHT22;12504;52.870;8.798;2023-04-24T01:46:34;10.60;99.90
24384;DHT22;12504;52.870;8.798;2023-04-24T01:49:01;10.60;99.90
24384;DHT22;12504;52.870;8.798;2023-04-24T01:51:26;10.60;99.90
24384;DHT22;12504;52.870;8.798;2023-04-24T01:53:52;10.60;99.90
24384;DHT22;12504;52.870;8.798;2023-04-24T01:56:19;10.60;99.90
24384;DHT22;12504;52.870;8.798;2023-04-24T01:58:45;10.70;99.90
24384;DHT22;12504;52.870;8.798;2023-04-24T02:01:14;10.80;99.90
24384;DHT22;12504;52.870;8.798;2023-04-24T02:03:40;10.70;99.90
24384;DHT22;12504;52.870;8.798;2023-04-24T02:06:06;10.80;99.90
24384;DHT22;12504;52.870;8.798;2023-04-24T02:08:31;10.80;99.90
24384;DHT22;12504;52.870;8.798;2023-04-24T02:10:57;10.90;99.90
24384;DHT22;12504;52.870;8.798;2023-04-24T02:13:23;10.90;99.90
24384;DHT22;12504;52.870;8.798;2023-04-24T02:15:49;10.80;99.90
24384;DHT22;12504;52.870;8.798;2023-04-24T02:18:14;10.80;99.90
24384;DHT22;12504;52.870;8.798;2023-04-24T02:20:40;10.80;99.90
24384;DHT22;12504;52.870;8.798;2023-04-24T02:23:06;10.80;99.90
24384;DHT22;12504;52.870;8.798;2023-04-24T02:25:32;10.80;99.90
24384;DHT22;12504;52.870;8.798;2023-04-24T02:27:58;10.80;99.90
24384;DHT22;12504;52.870;8.798;2023-04-24T02:30:25;10.90;99.90
24384;DHT22;12504;52.870;8.798;2023-04-24T02:32:52;10.90;99.90
24384;DHT22;12504;52.870;8.798;2023-04-24T02:35:17;10.90;99.90
24384;DHT22;12504;52.870;8.798;2023-04-24T02:37:43;10.90;99.90
24384;DHT22;12504;52.870;8.798;2023-04-24T02:40:11;10.90;99.90
24384;DHT22;12504;52.870;8.798;2023-04-24T02:42:36;10.90;99.90
24384;DHT22;12504;52.870;8.798;2023-04-24T02:45:02;10.80;99.90
24384;DHT22;12504;52.870;8.798;2023-04-24T02:47:28;10.80;99.90
24384;DHT22;12504;52.870;8.798;2023-04-24T02:49:53;10.80;99.90
24384;DHT22;12504;52.870;8.798;2023-04-24T02:52:19;10.80;99.90
24384;DHT22;12504;52.870;8.798;2023-04-24T02:54:45;10.80;99.90
24384;DHT22;12504;52.870;8.798;2023-04-24T02:57:10;10.80;99.90
24384;DHT22;12504;52.870;8.798;2023-04-24T02:59:39;10.80;99.90
24384;DHT22;12504;52.870;8.798;2023-04-24T03:02:05;10.80;99.90
24384;DHT22;12504;52.870;8.798;2023-04-24T03:04:31;10.80;99.90
24384;DHT22;12504;52.870;8.798;2023-04-24T03:06:57;10.80;99.90
24384;DHT22;12504;52.870;8.798;2023-04-24T03:09:23;10.80;99.90
24384;DHT22;12504;52.870;8.798;2023-04-24T03:11:49;10.80;99.90
24384;DHT22;12504;52.870;8.798;2023-04-24T03:14:15;10.80;99.90
24384;DHT22;12504;52.870;8.798;2023-04-24T03:16:41;10.80;99.90
24384;DHT22;12504;52.870;8.798;2023-04-24T03:19:06;10.70;99.90
24384;DHT22;12504;52.870;8.798;2023-04-24T03:21:37;10.70;99.90
24384;DHT22;12504;52.870;8.798;2023-04-24T03:24:09;10.70;99.90
24384;DHT22;12504;52.870;8.798;2023-04-24T03:26:36;10.70;99.90
24384;DHT22;12504;52.870;8.798;2023-04-24T03:29:26;10.60;99.90
24384;DHT22;12504;52.870;8.798;2023-04-24T03:31:51;10.70;99.90
24384;DHT22;12504;52.870;8.798;2023-04-24T03:34:18;10.70;99.90
24384;DHT22;12504;52.870;8.798;2023-04-24T03:36:44;10.70;99.90
24384;DHT22;12504;52.870;8.798;2023-04-24T03:39:09;10.70;99.90
24384;DHT22;12504;52.870;8.798;2023-04-24T03:41:37;10.80;99.90
24384;DHT22;12504;52.870;8.798;2023-04-24T03:44:10;10.80;99.90
24384;DHT22;12504;52.870;8.798;2023-04-24T03:46:36;10.70;99.90
24384;DHT22;12504;52.870;8.798;2023-04-24T03:49:01;10.70;99.90
24384;DHT22;12504;52.870;8.798;2023-04-24T03:51:31;10.70;99.90
24384;DHT22;12504;52.870;8.798;2023-04-24T03:54:07;10.60;99.90
24384;DHT22;12504;52.870;8.798;2023-04-24T03:56:36;10.60;99.90
24384;DHT22;12504;52.870;8.798;2023-04-24T03:59:02;10.60;99.90
24384;DHT22;12504;52.870;8.798;2023-04-24T04:01:28;10.70;99.90
24384;DHT22;12504;52.870;8.798;2023-04-24T04:04:05;10.60;99.90
24384;DHT22;12504;52.870;8.798;2023-04-24T04:06:31;10.60;99.90
24384;DHT22;12504;52.870;8.798;2023-04-24T04:08:58;10.60;99.90
24384;DHT22;12504;52.870;8.798;2023-04-24T04:11:24;10.60;99.90
24384;DHT22;12504;52.870;8.798;2023-04-24T04:13:50;10.60;99.90
24384;DHT22;12504;52.870;8.798;2023-04-24T04:16:19;10.60;99.90
24384;DHT22;12504;52.870;8.798;2023-04-24T04:18:47;10.60;99.90
24384;DHT22;12504;52.870;8.798;2023-04-24T04:21:13;10.70;99.90
24384;DHT22;12504;52.870;8.798;2023-04-24T04:23:39;10.70;99.90
24384;DHT22;12504;52.870;8.798;2023-04-24T04:26:21;10.70;99.90
24384;DHT22;12504;52.870;8.798;2023-04-24T04:29:17;10.60;99.90
24384;DHT22;12504;52.870;8.798;2023-04-24T04:31:44;10.60;99.90
24384;DHT22;12504;52.870;8.798;2023-04-24T04:34:12;10.60;99.90
24384;DHT22;12504;52.870;8.798;2023-04-24T04:36:40;10.50;99.90
24384;DHT22;12504;52.870;8.798;2023-04-24T04:39:26;10.50;99.90
24384;DHT22;12504;52.870;8.798;2023-04-24T04:41:58;10.50;99.90
24384;DHT22;12504;52.870;8.798;2023-04-24T04:44:29;10.60;99.90
24384;DHT22;12504;52.870;8.798;2023-04-24T04:46:59;10.60;99.90
24384;DHT22;12504;52.870;8.798;2023-04-24T04:49:32;10.50;99.90
24384;DHT22;12504;52.870;8.798;2023-04-24T04:51:58;10.50;99.90
24384;DHT22;12504;52.870;8.798;2023-04-24T04:54:25;10.50;99.90
24384;DHT22;12504;52.870;8.798;2023-04-24T04:56:51;10.50;99.90
24384;DHT22;12504;52.870;8.798;2023-04-24T04:59:17;10.60;99.90
24384;DHT22;12504;52.870;8.798;2023-04-24T05:01:43;10.50;99.90
24384;DHT22;12504;52.870;8.798;2023-04-24T05:04:11;10.50;99.90
24384;DHT22;12504;52.870;8.798;2023-04-24T05:06:37;10.50;99.90
24384;DHT22;12504;52.870;8.798;2023-04-24T05:09:04;10.50;99.90
24384;DHT22;12504;52.870;8.798;2023-04-24T05:11:37;10.40;99.90
24384;DHT22;12504;52.870;8.798;2023-04-24T05:14:02;10.50;99.90
24384;DHT22;12504;52.870;8.798;2023-04-24T05:16:34;10.50;99.90
24384;DHT22;12504;52.870;8.798;2023-04-24T05:19:00;10.60;99.90
24384;DHT22;12504;52.870;8.798;2023-04-24T05:21:31;10.60;99.90
24384;DHT22;12504;52.870;8.798;2023-04-24T05:23:57;10.60;99.90
24384;DHT22;12504;52.870;8.798;2023-04-24T05:26:58;10.60;99.90
24384;DHT22;12504;52.870;8.798;2023-04-24T05:29:31;10.70;99.90
24384;DHT22;12504;52.870;8.798;2023-04-24T05:31:57;10.80;99.90
24384;DHT22;12504;52.870;8.798;2023-04-24T05:34:23;11.00;99.90
24384;DHT22;12504;52.870;8.798;2023-04-24T05:36:53;11.30;99.90
24384;DHT22;12504;52.870;8.798;2023-04-24T05:39:19;11.60;99.90
24384;DHT22;12504;52.870;8.798;2023-04-24T05:41:45;11.90;99.90
24384;DHT22;12504;52.870;8.798;2023-04-24T05:44:11;12.10;99.90
24384;DHT22;12504;52.870;8.798;2023-04-24T05:46:36;12.40;99.90
24384;DHT22;12504;52.870;8.798;2023-04-24T05:49:02;12.90;99.90
24384;DHT22;12504;52.870;8.798;2023-04-24T05:51:30;13.40;99.90
24384;DHT22;12504;52.870;8.798;2023-04-24T05:53:58;13.80;99.90
24384;DHT22;12504;52.870;8.798;2023-04-24T05:56:24;14.30;99.90
24384;DHT22;12504;52.870;8.798;2023-04-24T05:58:50;14.20;97.60
24384;DHT22;12504;52.870;8.798;2023-04-24T06:01:16;13.70;99.90
24384;DHT22;12504;52.870;8.798;2023-04-24T06:03:44;13.00;99.90
24384;DHT22;12504;52.870;8.798;2023-04-24T06:06:10;12.30;99.90
24384;DHT22;12504;52.870;8.798;2023-04-24T06:08:36;11.90;99.90
24384;DHT22;12504;52.870;8.798;2023-04-24T06:11:02;11.60;99.90
24384;DHT22;12504;52.870;8.798;2023-04-24T06:13:28;11.40;99.90
24384;DHT22;12504;52.870;8.798;2023-04-24T06:16:16;11.30;99.90
24384;DHT22;12504;52.870;8.798;2023-04-24T06:18:48;11.20;99.90
24384;DHT22;12504;52.870;8.798;2023-04-24T06:21:16;11.10;99.90
24384;DHT22;12504;52.870;8.798;2023-04-24T06:23:41;11.00;99.90
24384;DHT22;12504;52.870;8.798;2023-04-24T06:26:08;11.00;99.90
24384;DHT22;12504;52.870;8.798;2023-04-24T06:28:33;10.90;99.90
24384;DHT22;12504;52.870;8.798;2023-04-24T06:30:59;10.90;99.90
24384;DHT22;12504;52.870;8.798;2023-04-24T06:33:24;10.80;99.90
24384;DHT22;12504;52.870;8.798;2023-04-24T06:35:50;10.80;99.90
24384;DHT22;12504;52.870;8.798;2023-04-24T06:38:15;10.90;99.90
24384;DHT22;12504;52.870;8.798;2023-04-24T06:40:41;10.90;99.90
24384;DHT22;12504;52.870;8.798;2023-04-24T06:43:07;10.90;99.90
24384;DHT22;12504;52.870;8.798;2023-04-24T06:45:32;10.90;99.90
24384;DHT22;12504;52.870;8.798;2023-04-24T06:47:58;10.90;99.90
24384;DHT22;12504;52.870;8.798;2023-04-24T06:50:23;11.00;99.90
24384;DHT22;12504;52.870;8.798;2023-04-24T06:52:49;11.10;99.90
24384;DHT22;12504;52.870;8.798;2023-04-24T06:55:15;11.20;99.90
24384;DHT22;12504;52.870;8.798;2023-04-24T06:57:42;11.30;99.90
24384;DHT22;12504;52.870;8.798;2023-04-24T07:00:07;11.30;99.90
24384;DHT22;12504;52.870;8.798;2023-04-24T07:02:34;11.40;99.90
24384;DHT22;12504;52.870;8.798;2023-04-24T07:05:00;11.50;99.90
24384;DHT22;12504;52.870;8.798;2023-04-24T07:07:26;11.60;99.90
24384;DHT22;12504;52.870;8.798;2023-04-24T07:09:52;11.70;99.90
24384;DHT22;12504;52.870;8.798;2023-04-24T07:12:19;11.60;99.90
24384;DHT22;12504;52.870;8.798;2023-04-24T07:14:47;11.60;99.90
24384;DHT22;12504;52.870;8.798;2023-04-24T07:17:12;11.60;99.90
24384;DHT22;12504;52.870;8.798;2023-04-24T07:19:38;11.60;99.90
24384;DHT22;12504;52.870;8.798;2023-04-24T07:22:04;11.60;99.90
24384;DHT22;12504;52.870;8.798;2023-04-24T07:24:30;11.70;99.90
24384;DHT22;12504;52.870;8.798;2023-04-24T07:26:57;11.70;99.90
24384;DHT22;12504;52.870;8.798;2023-04-24T07:29:23;11.70;99.90
24384;DHT22;12504;52.870;8.798;2023-04-24T07:31:48;11.70;99.90
24384;DHT22;12504;52.870;8.798;2023-04-24T07:34:14;11.70;99.90
24384;DHT22;12504;52.870;8.798;2023-04-24T07:36:40;11.70;99.90
24384;DHT22;12504;52.870;8.798;2023-04-24T07:39:06;11.60;99.90
24384;DHT22;12504;52.870;8.798;2023-04-24T07:41:32;11.60;99.90
24384;DHT22;12504;52.870;8.798;2023-04-24T07:43:58;11.70;99.90
24384;DHT22;12504;52.870;8.798;2023-04-24T07:46:23;11.60;99.90
24384;DHT22;12504;52.870;8.798;2023-04-24T07:48:50;11.60;99.90
24384;DHT22;12504;52.870;8.798;2023-04-24T07:51:15;11.50;99.90
24384;DHT22;12504;52.870;8.798;2023-04-24T07:53:41;11.50;99.90
24384;DHT22;12504;52.870;8.798;2023-04-24T07:56:07;11.40;99.90
24384;DHT22;12504;52.870;8.798;2023-04-24T07:58:32;11.40;99.90
24384;DHT22;12504;52.870;8.798;2023-04-24T08:00:58;11.30;99.90
24384;DHT22;12504;52.870;8.798;2023-04-24T08:03:23;11.30;99.90
24384;DHT22;12504;52.870;8.798;2023-04-24T08:05:50;11.20;99.90
24384;DHT22;12504;52.870;8.798;2023-04-24T08:08:16;11.20;99.90
24384;DHT22;12504;52.870;8.798;2023-04-24T08:10:42;11.20;99.90
24384;DHT22;12504;52.870;8.798;2023-04-24T08:13:07;11.20;99.90
24384;DHT22;12504;52.870;8.798;2023-04-24T08:15:34;11.20;99.90
24384;DHT22;12504;52.870;8.798;2023-04-24T08:18:00;11.20;99.90
24384;DHT22;12504;52.870;8.798;2023-04-24T08:20:26;11.20;99.90
24384;DHT22;12504;52.870;8.798;2023-04-24T08:22:51;11.20;99.90
24384;DHT22;12504;52.870;8.798;2023-04-24T08:25:17;11.10;99.90
24384;DHT22;12504;52.870;8.798;2023-04-24T08:27:44;11.10;99.90
24384;DHT22;12504;52.870;8.798;2023-04-24T08:30:10;11.10;99.90
24384;DHT22;12504;52.870;8.798;2023-04-24T08:32:36;11.20;99.90
24384;DHT22;12504;52.870;8.798;2023-04-24T08:35:01;11.20;99.90
24384;DHT22;12504;52.870;8.798;2023-04-24T08:37:27;11.20;99.90
24384;DHT22;12504;52.870;8.798;2023-04-24T08:39:53;11.30;99.90
24384;DHT22;12504;52.870;8.798;2023-04-24T08:42:19;11.40;99.90
24384;DHT22;12504;52.870;8.798;2023-04-24T08:44:45;11.40;99.90
24384;DHT22;12504;52.870;8.798;2023-04-24T08:47:11;11.40;99.90
24384;DHT22;12504;52.870;8.798;2023-04-24T08:49:37;11.50;99.90
24384;DHT22;12504;52.870;8.798;2023-04-24T08:52:02;11.60;99.90
24384;DHT22;12504;52.870;8.798;2023-04-24T08:54:28;11.60;99.90
24384;DHT22;12504;52.870;8.798;2023-04-24T08:56:56;11.50;99.90
24384;DHT22;12504;52.870;8.798;2023-04-24T08:59:23;11.60;99.90
24384;DHT22;12504;52.870;8.798;2023-04-24T09:01:49;11.60;99.90
24384;DHT22;12504;52.870;8.798;2023-04-24T09:04:16;11.50;99.90
24384;DHT22;12504;52.870;8.798;2023-04-24T09:06:45;11.50;99.90
24384;DHT22;12504;52.870;8.798;2023-04-24T09:09:11;11.40;99.90
24384;DHT22;12504;52.870;8.798;2023-04-24T09:11:37;11.40;99.90
24384;DHT22;12504;52.870;8.798;2023-04-24T09:14:02;11.30;99.90
24384;DHT22;12504;52.870;8.798;2023-04-24T09:16:29;11.30;99.90
24384;DHT22;12504;52.870;8.798;2023-04-24T09:18:55;11.40;99.90
24384;DHT22;12504;52.870;8.798;2023-04-24T09:21:21;11.40;99.90
24384;DHT22;12504;52.870;8.798;2023-04-24T09:23:47;11.60;99.90
24384;DHT22;12504;52.870;8.798;2023-04-24T09:26:22;11.70;99.90
24384;DHT22;12504;52.870;8.798;2023-04-24T09:28:48;11.60;99.90
24384;DHT22;12504;52.870;8.798;2023-04-24T09:31:14;11.60;99.90
24384;DHT22;12504;52.870;8.798;2023-04-24T09:34:01;11.60;99.90
24384;DHT22;12504;52.870;8.798;2023-04-24T09:36:29;11.50;99.90
24384;DHT22;12504;52.870;8.798;2023-04-24T09:38:58;11.30;99.90
24384;DHT22;12504;52.870;8.798;2023-04-24T09:41:23;11.20;99.90
24384;DHT22;12504;52.870;8.798;2023-04-24T09:43:49;11.10;99.90
24384;DHT22;12504;52.870;8.798;2023-04-24T09:46:15;11.00;99.90
24384;DHT22;12504;52.870;8.798;2023-04-24T09:48:43;11.00;99.90
24384;DHT22;12504;52.870;8.798;2023-04-24T09:51:09;11.20;99.90
24384;DHT22;12504;52.870;8.798;2023-04-24T09:53:37;11.50;99.90
24384;DHT22;12504;52.870;8.798;2023-04-24T09:56:09;11.90;99.90
24384;DHT22;12504;52.870;8.798;2023-04-24T09:58:35;12.10;99.90
24384;DHT22;12504;52.870;8.798;2023-04-24T10:01:01;12.00;99.90
24384;DHT22;12504;52.870;8.798;2023-04-24T10:03:29;11.80;99.90
24384;DHT22;12504;52.870;8.798;2023-04-24T10:05:58;11.50;99.90
24384;DHT22;12504;52.870;8.798;2023-04-24T10:08:23;11.20;99.90
24384;DHT22;12504;52.870;8.798;2023-04-24T10:10:49;11.10;99.90
24384;DHT22;12504;52.870;8.798;2023-04-24T10:13:15;11.00;99.90
24384;DHT22;12504;52.870;8.798;2023-04-24T10:15:41;11.00;99.90
24384;DHT22;12504;52.870;8.798;2023-04-24T10:18:07;11.00;99.90
24384;DHT22;12504;52.870;8.798;2023-04-24T10:20:34;11.00;99.90
24384;DHT22;12504;52.870;8.798;2023-04-24T10:23:00;11.10;99.90
24384;DHT22;12504;52.870;8.798;2023-04-24T10:25:28;11.20;99.90
24384;DHT22;12504;52.870;8.798;2023-04-24T10:27:54;11.30;99.90
24384;DHT22;12504;52.870;8.798;2023-04-24T10:30:23;11.30;99.90
24384;DHT22;12504;52.870;8.798;2023-04-24T10:32:48;11.30;99.90
24384;DHT22;12504;52.870;8.798;2023-04-24T10:35:14;11.30;99.90
24384;DHT22;12504;52.870;8.798;2023-04-24T10:37:45;11.10;99.90
24384;DHT22;12504;52.870;8.798;2023-04-24T10:40:11;10.80;99.90
24384;DHT22;12504;52.870;8.798;2023-04-24T10:42:39;10.60;99.90
24384;DHT22;12504;52.870;8.798;2023-04-24T10:45:06;10.50;99.90
24384;DHT22;12504;52.870;8.798;2023-04-24T10:47:41;10.50;99.90
24384;DHT22;12504;52.870;8.798;2023-04-24T10:50:09;10.50;99.90
24384;DHT22;12504;52.870;8.798;2023-04-24T10:52:44;10.60;99.90
24384;DHT22;12504;52.870;8.798;2023-04-24T10:55:12;10.70;99.90
24384;DHT22;12504;52.870;8.798;2023-04-24T10:57:37;10.80;99.90
24384;DHT22;12504;52.870;8.798;2023-04-24T11:00:10;11.00;99.90
24384;DHT22;12504;52.870;8.798;2023-04-24T11:02:38;11.30;99.90
24384;DHT22;12504;52.870;8.798;2023-04-24T11:05:05;11.70;99.90
24384;DHT22;12504;52.870;8.798;2023-04-24T11:10:25;12.10;99.90
24384;DHT22;12504;52.870;8.798;2023-04-24T11:12:51;12.10;99.90
24384;DHT22;12504;52.870;8.798;2023-04-24T11:15:17;12.30;99.90
24384;DHT22;12504;52.870;8.798;2023-04-24T11:17:44;12.70;99.90
24384;DHT22;12504;52.870;8.798;2023-04-24T11:20:11;13.50;99.90
24384;DHT22;12504;52.870;8.798;2023-04-24T11:22:37;14.10;99.90
24384;DHT22;12504;52.870;8.798;2023-04-24T11:25:05;14.20;99.90
24384;DHT22;12504;52.870;8.798;2023-04-24T11:27:39;14.80;96.50
24384;DHT22;12504;52.870;8.798;2023-04-24T11:30:05;15.90;41.60
24384;DHT22;12504;52.870;8.798;2023-04-24T11:35:04;15.40;54.90
24384;DHT22;12504;52.870;8.798;2023-04-24T11:37:40;14.70;78.40
24384;DHT22;12504;52.870;8.798;2023-04-24T11:40:10;13.90;99.90
24384;DHT22;12504;52.870;8.798;2023-04-24T11:45:02;12.70;99.90
24384;DHT22;12504;52.870;8.798;2023-04-24T11:47:32;12.70;99.90
24384;DHT22;12504;52.870;8.798;2023-04-24T11:50:01;12.90;99.90
24384;DHT22;12504;52.870;8.798;2023-04-24T11:52:29;12.90;99.90
24384;DHT22;12504;52.870;8.798;2023-04-24T11:54:55;12.90;99.90
24384;DHT22;12504;52.870;8.798;2023-04-24T11:57:20;12.80;99.90
24384;DHT22;12504;52.870;8.798;2023-04-24T11:59:47;12.60;99.90
24384;DHT22;12504;52.870;8.798;2023-04-24T12:02:22;12.50;99.90
24384;DHT22;12504;52.870;8.798;2023-04-24T12:04:48;12.00;99.90
24384;DHT22;12504;52.870;8.798;2023-04-24T12:09:43;11.30;99.90
24384;DHT22;12504;52.870;8.798;2023-04-24T12:12:08;11.00;99.90
24384;DHT22;12504;52.870;8.798;2023-04-24T12:14:50;10.90;99.90
24384;DHT22;12504;52.870;8.798;2023-04-24T12:17:16;10.80;99.90
24384;DHT22;12504;52.870;8.798;2023-04-24T12:19:45;10.80;99.90
24384;DHT22;12504;52.870;8.798;2023-04-24T12:22:11;10.60;99.90
24384;DHT22;12504;52.870;8.798;2023-04-24T12:24:54;10.50;99.90
24384;DHT22;12504;52.870;8.798;2023-04-24T12:27:20;10.40;99.90
24384;DHT22;12504;52.870;8.798;2023-04-24T12:29:53;10.20;99.90
24384;DHT22;12504;52.870;8.798;2023-04-24T12:32:19;10.00;99.90
24384;DHT22;12504;52.870;8.798;2023-04-24T12:34:44;10.00;99.90
24384;DHT22;12504;52.870;8.798;2023-04-24T12:37:11;9.90;99.90
24384;DHT22;12504;52.870;8.798;2023-04-24T12:39:36;9.90;99.90
24384;DHT22;12504;52.870;8.798;2023-04-24T12:42:02;10.00;99.90
24384;DHT22;12504;52.870;8.798;2023-04-24T12:44:34;9.90;99.90
24384;DHT22;12504;52.870;8.798;2023-04-24T12:47:00;9.90;99.90
24384;DHT22;12504;52.870;8.798;2023-04-24T12:49:26;9.90;99.90
24384;DHT22;12504;52.870;8.798;2023-04-24T12:51:52;9.70;99.90
24384;DHT22;12504;52.870;8.798;2023-04-24T12:54:18;9.50;99.90
24384;DHT22;12504;52.870;8.798;2023-04-24T12:56:43;9.30;99.90
24384;DHT22;12504;52.870;8.798;2023-04-24T12:59:09;9.20;99.90
24384;DHT22;12504;52.870;8.798;2023-04-24T13:01:35;9.00;99.90
24384;DHT22;12504;52.870;8.798;2023-04-24T13:04:01;8.90;99.90
24384;DHT22;12504;52.870;8.798;2023-04-24T13:06:26;8.80;99.90
24384;DHT22;12504;52.870;8.798;2023-04-24T13:08:52;8.80;99.90
24384;DHT22;12504;52.870;8.798;2023-04-24T13:11:20;8.70;99.90
24384;DHT22;12504;52.870;8.798;2023-04-24T13:13:47;8.70;99.90
24384;DHT22;12504;52.870;8.798;2023-04-24T13:16:12;8.60;99.90
24384;DHT22;12504;52.870;8.798;2023-04-24T13:18:38;8.50;99.90
24384;DHT22;12504;52.870;8.798;2023-04-24T13:21:04;8.40;99.90
24384;DHT22;12504;52.870;8.798;2023-04-24T13:23:29;8.40;99.90
24384;DHT22;12504;52.870;8.798;2023-04-24T13:25:55;8.30;99.90
24384;DHT22;12504;52.870;8.798;2023-04-24T13:28:26;8.30;99.90
24384;DHT22;12504;52.870;8.798;2023-04-24T13:30:52;8.30;99.90
24384;DHT22;12504;52.870;8.798;2023-04-24T13:33:17;8.30;99.90
24384;DHT22;12504;52.870;8.798;2023-04-24T13:35:43;8.20;99.90
24384;DHT22;12504;52.870;8.798;2023-04-24T13:38:09;8.20;99.90
24384;DHT22;12504;52.870;8.798;2023-04-24T13:40:34;8.20;99.90
24384;DHT22;12504;52.870;8.798;2023-04-24T13:43:01;8.20;99.90
24384;DHT22;12504;52.870;8.798;2023-04-24T13:45:26;8.20;99.90
24384;DHT22;12504;52.870;8.798;2023-04-24T13:47:52;8.20;99.90
24384;DHT22;12504;52.870;8.798;2023-04-24T13:50:19;8.20;99.90
24384;DHT22;12504;52.870;8.798;2023-04-24T13:52:44;8.20;99.90
24384;DHT22;12504;52.870;8.798;2023-04-24T13:55:10;8.10;99.90
24384;DHT22;12504;52.870;8.798;2023-04-24T13:57:36;8.10;99.90
24384;DHT22;12504;52.870;8.798;2023-04-24T14:00:02;8.00;99.90
24384;DHT22;12504;52.870;8.798;2023-04-24T14:02:32;8.00;99.90
24384;DHT22;12504;52.870;8.798;2023-04-24T14:04:58;7.90;99.90
24384;DHT22;12504;52.870;8.798;2023-04-24T14:07:23;7.90;99.90
24384;DHT22;12504;52.870;8.798;2023-04-24T14:09:49;7.90;99.90
24384;DHT22;12504;52.870;8.798;2023-04-24T14:12:15;7.90;99.90
24384;DHT22;12504;52.870;8.798;2023-04-24T14:14:43;7.90;99.90
24384;DHT22;12504;52.870;8.798;2023-04-24T14:17:09;7.90;99.90
24384;DHT22;12504;52.870;8.798;2023-04-24T14:19:35;7.90;99.90
24384;DHT22;12504;52.870;8.798;2023-04-24T14:22:01;7.90;99.90
24384;DHT22;12504;52.870;8.798;2023-04-24T14:24:27;7.90;99.90
24384;DHT22;12504;52.870;8.798;2023-04-24T14:26:52;7.90;99.90
24384;DHT22;12504;52.870;8.798;2023-04-24T14:29:18;7.90;99.90
24384;DHT22;12504;52.870;8.798;2023-04-24T14:31:44;7.90;99.90
24384;DHT22;12504;52.870;8.798;2023-04-24T14:34:10;7.90;99.90
24384;DHT22;12504;52.870;8.798;2023-04-24T14:36:36;7.90;99.90
24384;DHT22;12504;52.870;8.798;2023-04-24T14:39:01;7.90;99.90
24384;DHT22;12504;52.870;8.798;2023-04-24T14:41:31;7.90;99.90
24384;DHT22;12504;52.870;8.798;2023-04-24T14:43:57;8.00;99.90
24384;DHT22;12504;52.870;8.798;2023-04-24T14:46:22;8.00;99.90
24384;DHT22;12504;52.870;8.798;2023-04-24T14:48:48;8.00;99.90
24384;DHT22;12504;52.870;8.798;2023-04-24T14:51:13;8.10;99.90
24384;DHT22;12504;52.870;8.798;2023-04-24T14:53:39;8.10;99.90
24384;DHT22;12504;52.870;8.798;2023-04-24T14:56:05;8.10;99.90
24384;DHT22;12504;52.870;8.798;2023-04-24T14:58:30;8.10;99.90
24384;DHT22;12504;52.870;8.798;2023-04-24T15:00:56;8.10;99.90
24384;DHT22;12504;52.870;8.798;2023-04-24T15:03:22;8.10;99.90
24384;DHT22;12504;52.870;8.798;2023-04-24T15:05:48;8.10;99.90
24384;DHT22;12504;52.870;8.798;2023-04-24T15:08:14;8.10;99.90
24384;DHT22;12504;52.870;8.798;2023-04-24T15:10:39;8.10;99.90
24384;DHT22;12504;52.870;8.798;2023-04-24T15:13:05;8.10;99.90
24384;DHT22;12504;52.870;8.798;2023-04-24T15:15:30;8.10;99.90
24384;DHT22;12504;52.870;8.798;2023-04-24T15:17:56;8.10;99.90
24384;DHT22;12504;52.870;8.798;2023-04-24T15:20:21;8.10;99.90
24384;DHT22;12504;52.870;8.798;2023-04-24T15:22:47;8.10;99.90
24384;DHT22;12504;52.870;8.798;2023-04-24T15:25:13;8.00;99.90
24384;DHT22;12504;52.870;8.798;2023-04-24T15:27:39;8.10;99.90
24384;DHT22;12504;52.870;8.798;2023-04-24T15:30:06;8.10;99.90
24384;DHT22;12504;52.870;8.798;2023-04-24T15:32:31;8.20;99.90
24384;DHT22;12504;52.870;8.798;2023-04-24T15:34:57;8.20;99.90
24384;DHT22;12504;52.870;8.798;2023-04-24T15:37:22;8.30;99.90
24384;DHT22;12504;52.870;8.798;2023-04-24T15:39:48;8.30;99.90
24384;DHT22;12504;52.870;8.798;2023-04-24T15:42:14;8.30;99.90
24384;DHT22;12504;52.870;8.798;2023-04-24T15:44:39;8.30;99.90